Airport View

Enter AWOS ICAO identifier for current METAR.

ex. KFNL

KBVU 191910Z AUTO 13011G19KT 110V190 10SM CLR 37/M01 A2989 RMK AO2

19 Jun 2019 19:13

Frequency: 118.475

Phone: 702-293-1532

Other Area AWOS: KHND - KLAS - KLSV - KVGT

TAF KHND 191732Z 1918/2018 16007KT P6SM SKC FM192100 21010G20KT P6SM FEW140 FM200300 19014G24KT P6SM SKC